SVR9583 UUDD-UWUU
Flight info
| Callsign | SVR9583 |
|---|---|
| Flight time | N/A |
| Altitude | 35000 |
| Route | K0824F350 KOGOM4Q KOGOM L94 EKPIR M864 INKEB L94 UNORO T788 NAMUD L994 DILUP DILUP3Y |
| Aircraft | A321/M-SDE3FGHIRWY/LB1 |
Departure
| Time | N/A |
|---|---|
| Airport | Domodedovo International Airport (UUDD) |
Arrival
| Time | 2026-05-04 14:46 |
|---|---|
| Airport | Ufa International Airport (UWUU) |
| Time | Latitude | Longitude | Altitude | Speed | Heading |
|---|---|---|---|---|---|
| 2026-05-04 14:34 | 54.47843 | 55.27519 | 13649 ft | 331 kts | 79° |
| 2026-05-04 14:34 | 54.48295 | 55.31373 | 13239 ft | 328 kts | 79° |
| 2026-05-04 14:35 | 54.48742 | 55.35199 | 12836 ft | 325 kts | 79° |
| 2026-05-04 14:35 | 54.49183 | 55.38997 | 12421 ft | 323 kts | 79° |
| 2026-05-04 14:35 | 54.49622 | 55.42771 | 12011 ft | 320 kts | 79° |
| 2026-05-04 14:35 | 54.49981 | 55.46532 | 11599 ft | 318 kts | 88° |
| 2026-05-04 14:36 | 54.49755 | 55.50268 | 11183 ft | 313 kts | 107° |
| 2026-05-04 14:36 | 54.48886 | 55.53662 | 10772 ft | 309 kts | 124° |
| 2026-05-04 14:36 | 54.47450 | 55.56507 | 9989 ft | 321 kts | 143° |
| 2026-05-04 14:36 | 54.45557 | 55.58400 | 9770 ft | 308 kts | 158° |
| 2026-05-04 14:37 | 54.43622 | 55.59805 | 9619 ft | 296 kts | 158° |
| 2026-05-04 14:37 | 54.41749 | 55.61189 | 9492 ft | 291 kts | 158° |
| 2026-05-04 14:37 | 54.39892 | 55.62562 | 9365 ft | 290 kts | 158° |
| 2026-05-04 14:37 | 54.38038 | 55.63926 | 9235 ft | 290 kts | 158° |
| 2026-05-04 14:38 | 54.36183 | 55.65285 | 8997 ft | 289 kts | 158° |
| 2026-05-04 14:38 | 54.34342 | 55.66631 | 8729 ft | 288 kts | 158° |
| 2026-05-04 14:38 | 54.32505 | 55.67974 | 8456 ft | 286 kts | 158° |
| 2026-05-04 14:38 | 54.30672 | 55.69312 | 8187 ft | 285 kts | 158° |
| 2026-05-04 14:39 | 54.28903 | 55.70692 | 8011 ft | 274 kts | 148° |
| 2026-05-04 14:39 | 54.27580 | 55.72915 | 7804 ft | 265 kts | 119° |
| 2026-05-04 14:39 | 54.27042 | 55.75838 | 7782 ft | 262 kts | 94° |
| 2026-05-04 14:40 | 54.28235 | 55.81618 | 6941 ft | 263 kts | 57° |
| 2026-05-04 14:40 | 54.29191 | 55.84277 | 6558 ft | 261 kts | 58° |
| 2026-05-04 14:40 | 54.30127 | 55.86913 | 6239 ft | 258 kts | 58° |
| 2026-05-04 14:40 | 54.31035 | 55.89488 | 5920 ft | 254 kts | 58° |
| 2026-05-04 14:41 | 54.31945 | 55.92074 | 5562 ft | 253 kts | 58° |
| 2026-05-04 14:41 | 54.32984 | 55.94436 | 5214 ft | 242 kts | 43° |
| 2026-05-04 14:41 | 54.35651 | 55.97260 | 4601 ft | 214 kts | 27° |
| 2026-05-04 14:42 | 54.38188 | 55.99579 | 4027 ft | 200 kts | 27° |
| 2026-05-04 14:42 | 54.39463 | 56.00406 | 3772 ft | 194 kts | 9° |
| 2026-05-04 14:42 | 54.40786 | 56.00409 | 3502 ft | 189 kts | 348° |
| 2026-05-04 14:43 | 54.41997 | 55.99632 | 3232 ft | 185 kts | 329° |
| 2026-05-04 14:43 | 54.43112 | 55.98566 | 2982 ft | 181 kts | 330° |
| 2026-05-04 14:43 | 54.44202 | 55.97525 | 2743 ft | 178 kts | 330° |
| 2026-05-04 14:43 | 54.45249 | 55.96522 | 2518 ft | 166 kts | 330° |
| 2026-05-04 14:44 | 54.46220 | 55.95596 | 2305 ft | 155 kts | 330° |
| 2026-05-04 14:44 | 54.47149 | 55.94705 | 2098 ft | 151 kts | 330° |
| 2026-05-04 14:44 | 54.48062 | 55.93832 | 1900 ft | 150 kts | 330° |
| 2026-05-04 14:44 | 54.48972 | 55.92954 | 1713 ft | 149 kts | 330° |
| 2026-05-04 14:45 | 54.49877 | 55.92082 | 1509 ft | 149 kts | 331° |
| 2026-05-04 14:45 | 54.50778 | 55.91237 | 1287 ft | 148 kts | 330° |
| 2026-05-04 14:45 | 54.51676 | 55.90367 | 1096 ft | 148 kts | 330° |
| 2026-05-04 14:45 | 54.52572 | 55.89500 | 875 ft | 147 kts | 330° |
| 2026-05-04 14:46 | 54.53461 | 55.88637 | 670 ft | 146 kts | 329° |
| 2026-05-04 14:46 | 54.54349 | 55.87786 | 505 ft | 146 kts | 330° |
| 2026-05-04 14:46 | 54.55205 | 55.86964 | 451 ft | 132 kts | 330° |
| 2026-05-04 14:46 | 54.55710 | 55.86485 | 449 ft | 31 kts | 330° |
| 2026-05-04 14:47 | 54.55822 | 55.86395 | 451 ft | 11 kts | 359° |
| 2026-05-04 14:47 | 54.55866 | 55.86473 | 451 ft | 9 kts | 61° |
| 2026-05-04 14:47 | 54.55894 | 55.86565 | 450 ft | 9 kts | 61° |
| 2026-05-04 14:47 | 54.55923 | 55.86655 | 450 ft | 10 kts | 60° |
| 2026-05-04 14:48 | 54.55966 | 55.86784 | 450 ft | 15 kts | 60° |
| 2026-05-04 14:48 | 54.56024 | 55.86957 | 450 ft | 18 kts | 59° |
| 2026-05-04 14:48 | 54.56083 | 55.87136 | 450 ft | 17 kts | 60° |
| 2026-05-04 14:48 | 54.56139 | 55.87307 | 450 ft | 16 kts | 60° |
| 2026-05-04 14:49 | 54.56192 | 55.87470 | 450 ft | 15 kts | 60° |
| 2026-05-04 14:49 | 54.56242 | 55.87623 | 450 ft | 14 kts | 60° |
| 2026-05-04 14:49 | 54.56288 | 55.87766 | 450 ft | 13 kts | 60° |
| 2026-05-04 14:49 | 54.56329 | 55.87890 | 450 ft | 12 kts | 60° |
| 2026-05-04 14:50 | 54.56377 | 55.88035 | 450 ft | 17 kts | 60° |
| 2026-05-04 14:50 | 54.56447 | 55.88159 | 450 ft | 13 kts | 358° |
| 2026-05-04 14:50 | 54.56523 | 55.88154 | 450 ft | 5 kts | 33° |
| 2026-05-04 14:50 | 54.56538 | 55.88205 | 450 ft | 6 kts | 64° |
| 2026-05-04 14:51 | 54.56558 | 55.88269 | 450 ft | 2 kts | 60° |
| 2026-05-04 14:51 | 54.56561 | 55.88277 | 450 ft | 0 kts | 61° |